Orbital elements of COSMOS 970 DEB
| Launched | 20 December 1977 |
| Flight ended | – |
| Launch site | Tyuratam Missile and Space Center, Kazakhstan (Also known as Baikonur Cosmodrome) |
| Owner | Commonwealth of Independent States (former USSR) |
| NORAD ID | 10535 |
| Date fetched |
Epoch osculation |
Inc. [°] |
Ecc. | RA asc node [hr] |
Arg Peri. [°] |
Mean anom [°] |
Mean motion [rev/day] |
Abs. mag |
| Date fetched |
Epoch osculation |
Inc. [°] |
Ecc. | RA asc node [hr] |
Arg Peri. [°] |
Mean anom [°] |
Mean motion [rev/day] |
Abs. mag |
| 2026 May 03 17:57 | 2026 Apr 30 14:44:50 | 65.8514 | 0.01108 | 21.1769 | 80.4192 | 340.1754 | 13.76318 | – |
| 2026 May 02 17:57 | 2026 Apr 30 14:44:50 | 65.8514 | 0.01108 | 21.1769 | 80.4192 | 340.1754 | 13.76318 | – |
| 2026 May 01 17:56 | 2026 Apr 30 14:44:50 | 65.8514 | 0.01108 | 21.1769 | 80.4192 | 340.1754 | 13.76318 | – |
| 2026 Apr 30 17:56 | 2026 Apr 30 14:44:50 | 65.8514 | 0.01108 | 21.1769 | 80.4192 | 340.1754 | 13.76318 | – |
| 2026 Apr 29 17:57 | 2026 Apr 24 00:18:39 | 65.8520 | 0.01107 | 22.2661 | 83.9017 | 340.1754 | 13.76318 | – |
| 2026 Apr 28 17:56 | 2026 Apr 24 00:18:39 | 65.8520 | 0.01107 | 22.2661 | 83.9017 | 340.1754 | 13.76318 | – |
| 2026 Apr 27 17:58 | 2026 Apr 24 00:18:39 | 65.8520 | 0.01107 | 22.2661 | 83.9017 | 340.1754 | 13.76318 | – |
| 2026 Apr 26 17:58 | 2026 Apr 24 00:18:39 | 65.8520 | 0.01107 | 22.2661 | 83.9017 | 340.1754 | 13.76318 | – |
| 2026 Apr 25 17:58 | 2026 Apr 24 00:18:39 | 65.8520 | 0.01107 | 22.2661 | 83.9017 | 340.1754 | 13.76318 | – |
| 2026 Apr 24 17:59 | 2026 Apr 24 00:18:39 | 65.8520 | 0.01107 | 22.2661 | 83.9017 | 340.1754 | 13.76318 | – |
| 2026 Apr 23 17:57 | 2026 Apr 19 01:52:38 | 65.8528 | 0.01105 | 23.0802 | 86.5192 | 340.1754 | 13.76318 | – |
| 2026 Apr 22 17:57 | 2026 Apr 19 01:52:38 | 65.8528 | 0.01105 | 23.0802 | 86.5192 | 340.1754 | 13.76318 | – |
| 2026 Apr 21 17:57 | 2026 Apr 19 01:52:38 | 65.8528 | 0.01105 | 23.0802 | 86.5192 | 340.1754 | 13.76318 | – |
| 2026 Apr 20 17:57 | 2026 Apr 19 01:52:38 | 65.8528 | 0.01105 | 23.0802 | 86.5192 | 340.1754 | 13.76318 | – |
| 2026 Apr 19 17:58 | 2026 Apr 19 01:52:38 | 65.8528 | 0.01105 | 23.0802 | 86.5192 | 340.1754 | 13.76318 | – |
| 2026 Apr 18 17:56 | 2026 Apr 13 02:52:07 | 65.8532 | 0.01103 | 0.0633 | 89.6996 | 340.1754 | 13.76318 | – |
| 2026 Apr 16 17:57 | 2026 Apr 13 02:52:07 | 65.8532 | 0.01103 | 0.0633 | 89.6996 | 340.1754 | 13.76318 | – |
| 2026 Apr 14 17:57 | 2026 Apr 13 02:52:07 | 65.8532 | 0.01103 | 0.0633 | 89.6996 | 340.1754 | 13.76318 | – |
| 2026 Apr 13 17:57 | 2026 Apr 13 02:52:07 | 65.8532 | 0.01103 | 0.0633 | 89.6996 | 340.1754 | 13.76318 | – |
| 2026 Apr 12 17:57 | 2026 Apr 08 04:21:11 | 65.8535 | 0.01101 | 0.8779 | 92.3543 | 340.1754 | 13.76318 | – |
| 2026 Apr 11 17:57 | 2026 Apr 08 04:21:11 | 65.8535 | 0.01101 | 0.8779 | 92.3543 | 340.1754 | 13.76318 | – |
| 2026 Apr 10 17:58 | 2026 Apr 08 04:21:11 | 65.8535 | 0.01101 | 0.8779 | 92.3543 | 340.1754 | 13.76318 | – |
| 2026 Apr 09 18:01 | 2026 Apr 08 04:21:11 | 65.8535 | 0.01101 | 0.8779 | 92.3543 | 340.1754 | 13.76318 | – |
| 2026 Apr 08 17:57 | 2026 Apr 08 04:21:11 | 65.8535 | 0.01101 | 0.8779 | 92.3543 | 340.1754 | 13.76318 | – |
| 2026 Apr 07 17:57 | 2026 Apr 02 05:16:21 | 65.8530 | 0.01099 | 1.8614 | 95.5836 | 340.1754 | 13.76318 | – |
| 2026 Apr 06 17:57 | 2026 Apr 02 05:16:21 | 65.8530 | 0.01099 | 1.8614 | 95.5836 | 340.1754 | 13.76318 | – |